Latest Coastal Weather Observations for Arlington Reef

IDQ60701

Issued at 11:55 pm EST Thursday 24 April 2014 (issued every 10 minutes, with the page automatically refreshed every 10 minutes)

About coastal observations | Map of coastal stations | Coastal observations for QLD | Marine services | Other Formats
Station Details ID: 200879 Name: ARLINGTON REEF Lat: -16.72 Lon: 146.11 Height: 0.0 m
Data from the previous 72 hours. | See also: Recent months at Arlington Reef
Date/Time
EST
Temp

°C
Wind Pressure Rain
since 9am
mm
Weather Cloud Vis
km
Sea
Height
m
Swell
Dir
 
Speed
knots
Gust
knots
hPa Trend Height
m
Period
s
Dir
24/11:30pm - SSE 15 16 1011.6 - - - - - - - - -
24/11:00pm - SSE 17 19 1011.8 - - - - - - - - -
24/10:30pm - SE 17 20 1011.9 - - - - - - - - -
24/10:00pm - SE 16 19 1012.1 - - - - - - - - -
24/09:30pm - SE 17 19 1012.1 - - - - - - - - -
24/09:00pm - SE 17 20 1011.8 - - - - - - - - -
24/08:30pm - SE 16 19 1011.6 - - - - - - - - -
24/08:00pm - SE 16 19 1011.2 - - - - - - - - -
24/07:30pm - SE 14 16 1010.7 - - - - - - - - -
24/07:00pm - SE 13 15 1010.4 - - - - - - - - -
24/06:30pm - SE 13 15 1010.0 - - - - - - - - -
24/06:00pm - SE 12 13 1010.0 - - - - - - - - -
24/05:30pm - SE 11 13 1009.8 - - - - - - - - -
24/05:00pm - ESE 12 15 1009.4 - - - - - - - - -
24/04:30pm - ESE 13 15 1009.0 - - - - - - - - -
24/04:00pm - ESE 14 17 1008.8 - - - - - - - - -
24/03:30pm - E 15 18 1008.8 - - - - - - - - -
24/03:00pm - E 13 15 1009.0 - - - - - - - - -
24/02:30pm - ESE 12 16 1009.0 - - - - - - - - -
24/02:00pm - ESE 12 15 1009.2 - - - - - - - - -
24/01:30pm - ESE 14 17 1009.5 - - - - - - - - -
24/01:00pm - ESE 14 17 1009.6 - - - - - - - - -
24/12:30pm - ESE 15 17 1010.1 - - - - - - - - -
24/12:00pm - ESE 15 18 1010.5 - - - - - - - - -
24/11:30am - ESE 14 17 1011.0 - - - - - - - - -
24/11:00am - ESE 16 19 1011.5 - - - - - - - - -
24/10:30am - ESE 15 19 1011.8 - - - - - - - - -
24/10:00am - S 14 17 1011.9 - - - - - - - - -
24/09:30am - S 13 15 1011.8 - - - - - - - - -
24/09:00am - SSE 16 21 1011.6 - - - - - - - - -
24/08:30am - SE 15 18 1011.5 - - - - - - - - -
24/08:00am - SSE 15 17 1011.2 - - - - - - - - -
24/07:30am - SSE 16 19 1010.9 - - - - - - - - -
24/07:00am - SSE 17 20 1010.7 - - - - - - - - -
24/06:30am - SSE 20 23 1010.2 - - - - - - - - -
24/06:00am - SSE 21 26 1009.7 - - - - - - - - -
24/05:30am - SSE 20 23 1009.6 - - - - - - - - -
24/05:00am - SSE 21 25 1009.4 - - - - - - - - -
24/04:30am - SSE 20 25 1009.4 - - - - - - - - -
24/04:00am - SSE 19 22 1009.4 - - - - - - - - -
24/03:30am - SSE 21 24 1009.5 - - - - - - - - -
24/03:00am - S 21 25 1009.5 - - - - - - - - -
24/02:30am - SSE 20 23 1010.0 - - - - - - - - -
24/02:00am - SSE 22 26 1010.4 - - - - - - - - -
24/01:30am - SSE 23 26 1010.8 - - - - - - - - -
24/01:00am - SSE 24 28 1010.8 - - - - - - - - -
24/12:30am - SSE 21 25 1011.4 - - - - - - - - -
24/12:00am - SSE 19 23 1011.8 - - - - - - - - -
 
Date/Time
EST
Temp

°C
Wind Pressure Rain
since 9am
mm
Weather Cloud Vis
km
Sea
Height
m
Swell
Dir
 
Speed
knots
Gust
knots
hPa Trend Height
m
Period
s
Dir
23/11:30pm - SSE 19 23 1012.0 - - - - - - - - -
23/11:00pm - SSE 22 26 1012.3 - - - - - - - - -
23/10:30pm - SSE 19 22 1012.4 - - - - - - - - -
23/10:00pm - S 17 21 1012.5 - - - - - - - - -
23/09:30pm - SSE 20 24 1012.4 - - - - - - - - -
23/09:00pm - S 22 26 1012.0 - - - - - - - - -
23/08:30pm - SSE 19 24 1012.0 - - - - - - - - -
23/08:00pm - S 20 22 1011.4 - - - - - - - - -
23/07:30pm - S 18 21 1011.2 - - - - - - - - -
23/07:00pm - SSE 19 23 1011.1 - - - - - - - - -
23/06:30pm - SSE 17 21 1010.8 - - - - - - - - -
23/06:00pm - S 16 18 1010.8 - - - - - - - - -
23/05:30pm - S 18 21 1010.5 - - - - - - - - -
23/05:00pm - SSE 19 22 1010.2 - - - - - - - - -
23/04:30pm - S 18 22 1010.2 - - - - - - - - -
23/04:00pm - S 19 23 1010.2 - - - - - - - - -
23/03:30pm - S 18 22 1010.0 - - - - - - - - -
23/03:00pm - S 17 19 1010.1 - - - - - - - - -
23/02:30pm - SSE 17 19 1010.3 - - - - - - - - -
23/02:00pm - SSE 18 21 1010.4 - - - - - - - - -
23/01:30pm - SSE 19 22 1010.7 - - - - - - - - -
23/01:00pm - SSE 18 21 1010.9 - - - - - - - - -
23/12:30pm - S 18 21 1011.4 - - - - - - - - -
23/12:00pm - SSE 17 20 1012.1 - - - - - - - - -
23/11:30am - SSE 15 18 1012.5 - - - - - - - - -
23/11:00am - SSE 14 20 1012.9 - - - - - - - - -
23/10:30am - SE 15 20 1013.3 - - - - - - - - -
23/10:00am - SSE 17 21 1013.2 - - - - - - - - -
23/09:30am - SE 17 22 1013.1 - - - - - - - - -
23/09:00am - SE 17 19 1013.2 - - - - - - - - -
23/08:30am - SSE 13 16 1012.9 - - - - - - - - -
23/08:00am - SSE 16 18 1012.7 - - - - - - - - -
23/07:30am - SSE 16 19 1012.4 - - - - - - - - -
23/07:00am - SSE 17 20 1012.1 - - - - - - - - -
23/06:30am - SSE 20 23 1011.6 - - - - - - - - -
23/06:00am - SE 19 22 1011.5 - - - - - - - - -
23/05:30am - SSE 18 21 1011.2 - - - - - - - - -
23/05:00am - SSE 20 22 1011.1 - - - - - - - - -
23/04:30am - SSE 20 23 1011.1 - - - - - - - - -
23/04:00am - SSE 20 23 1011.1 - - - - - - - - -
23/03:30am - SSE 20 23 1011.2 - - - - - - - - -
23/03:00am - SSE 20 24 1011.3 - - - - - - - - -
23/02:30am - SSE 17 22 1011.6 - - - - - - - - -
23/02:00am - SE 19 24 1012.1 - - - - - - - - -
23/01:30am - SSE 20 24 1012.3 - - - - - - - - -
23/01:00am - SSE 19 22 1012.6 - - - - - - - - -
23/12:30am - SSE 19 22 1013.2 - - - - - - - - -
23/12:00am - SSE 19 22 1013.6 - - - - - - - - -
 
Date/Time
EST
Temp

°C
Wind Pressure Rain
since 9am
mm
Weather Cloud Vis
km
Sea
Height
m
Swell
Dir
 
Speed
knots
Gust
knots
hPa Trend Height
m
Period
s
Dir
22/11:30pm - SSE 18 22 1013.6 - - - - - - - - -
22/11:00pm - SSE 18 21 1013.9 - - - - - - - - -
22/10:30pm - S 17 19 1014.0 - - - - - - - - -
22/10:00pm - SSE 17 22 1014.1 - - - - - - - - -
22/09:30pm - SSE 19 22 1014.3 - - - - - - - - -
22/09:00pm - SSE 19 22 1014.3 - - - - - - - - -
22/08:30pm - SSE 19 22 1014.3 - - - - - - - - -
22/08:00pm - SSE 20 23 1013.9 - - - - - - - - -
22/07:30pm - SSE 18 20 1013.7 - - - - - - - - -
22/07:00pm - SSE 19 22 1013.4 - - - - - - - - -
22/06:30pm - SSE 18 21 1013.4 - - - - - - - - -
22/06:00pm - SSE 18 21 1013.2 - - - - - - - - -
22/05:30pm - SSE 16 19 1013.1 - - - - - - - - -
22/05:00pm - SSE 15 18 1012.8 - - - - - - - - -
22/04:30pm - SE 14 17 1012.7 - - - - - - - - -
22/04:00pm - SE 14 16 1012.7 - - - - - - - - -
22/03:30pm - SE 14 17 1012.6 - - - - - - - - -
22/03:00pm - SE 14 16 1012.7 - - - - - - - - -
22/02:30pm - SE 14 18 1012.9 - - - - - - - - -
22/02:00pm - SE 13 15 1013.3 - - - - - - - - -
22/01:30pm - SE 13 16 1013.6 - - - - - - - - -
22/01:00pm - SE 14 16 1014.1 - - - - - - - - -
22/12:30pm - SE 16 18 1014.4 - - - - - - - - -
22/12:00pm - SE 16 19 1014.9 - - - - - - - - -
22/11:30am - SE 16 19 1015.2 - - - - - - - - -
22/11:00am - SE 17 20 1015.6 - - - - - - - - -
22/10:30am - ESE 18 21 1015.7 - - - - - - - - -
22/10:00am - ESE 17 20 1016.0 - - - - - - - - -
22/09:30am - ESE 18 20 1015.9 - - - - - - - - -
22/09:00am - ESE 17 20 1015.7 - - - - - - - - -
22/08:30am - ESE 19 23 1015.3 - - - - - - - - -
22/08:00am - ESE 21 24 1015.0 - - - - - - - - -
22/07:30am - ESE 21 27 1014.8 - - - - - - - - -
22/07:00am - ESE 21 24 1014.5 - - - - - - - - -
22/06:30am - ESE 21 24 1014.1 - - - - - - - - -
22/06:00am - E 21 25 1013.7 - - - - - - - - -
22/05:30am - ESE 21 24 1013.5 - - - - - - - - -
22/05:00am - ESE 20 23 1013.6 - - - - - - - - -
22/04:30am - ESE 18 22 1013.5 - - - - - - - - -
22/04:00am - ESE 21 24 1013.4 - - - - - - - - -
22/03:30am - SE 18 23 1013.7 - - - - - - - - -
22/03:17am - SSE 21 24 1013.6 - - - - - - - - -
22/03:00am - ESE 16 19 1014.0 - - - - - - - - -
22/02:30am - ESE 19 22 1013.9 - - - - - - - - -
22/02:00am - SE 20 22 1013.8 - - - - - - - - -
22/01:30am - ESE 20 23 1014.2 - - - - - - - - -
22/01:00am - ESE 21 25 1014.4 - - - - - - - - -
22/12:30am - SE 19 23 1014.9 - - - - - - - - -
22/12:00am - ESE 18 21 1015.1 - - - - - - - - -

Other Formats:

Comma delimited format used in spreadsheet applications
http://www.bom.gov.au/fwo/IDQ60701/IDQ60701.94284.axf

JavaScript Object Notation format (JSON) in row-major order
http://www.bom.gov.au/fwo/IDQ60701/IDQ60701.94284.json